createdAt,value
2022-10-06T00:02:44.094Z,77.8
2022-10-06T00:05:44.069Z,78
2022-10-06T00:08:44.093Z,78.2
2022-10-06T00:11:44.077Z,78.5
2022-10-06T00:14:44.076Z,78.7
2022-10-06T00:17:44.082Z,79
2022-10-06T00:20:44.090Z,79.4
2022-10-06T00:23:44.091Z,79.4
2022-10-06T00:26:44.115Z,79.2
2022-10-06T00:29:44.102Z,79
2022-10-06T00:32:44.098Z,78.7
2022-10-06T00:35:44.109Z,78.7
2022-10-06T00:38:44.105Z,78.8
2022-10-06T00:41:44.113Z,79
2022-10-06T00:44:44.144Z,79.1
2022-10-06T00:47:44.121Z,79.1
2022-10-06T00:50:44.121Z,79
2022-10-06T00:53:44.130Z,79
2022-10-06T00:56:44.125Z,78.9
2022-10-06T00:59:44.128Z,78.8
2022-10-06T01:02:44.230Z,78.6
2022-10-06T01:05:44.140Z,78.4
2022-10-06T01:08:44.141Z,78.2
2022-10-06T01:11:44.143Z,78.1
2022-10-06T01:14:44.144Z,77.9
2022-10-06T01:17:44.165Z,77.9
2022-10-06T01:20:44.178Z,76.5
2022-10-06T01:23:44.155Z,77.2
2022-10-06T01:26:44.168Z,77.7
2022-10-06T01:29:44.167Z,78.3
2022-10-06T01:32:44.205Z,78.9
2022-10-06T01:35:44.177Z,80.2
2022-10-06T01:38:44.357Z,79.8
2022-10-06T01:41:44.182Z,79.6
2022-10-06T01:44:44.184Z,79.4
2022-10-06T01:47:44.198Z,79.1
2022-10-06T01:50:44.196Z,79
2022-10-06T01:53:44.193Z,78.9
2022-10-06T01:56:44.216Z,78.2
2022-10-06T01:59:44.208Z,78
2022-10-06T02:02:44.204Z,77.5
2022-10-06T02:05:44.214Z,77.2
2022-10-06T02:08:44.224Z,76.9
2022-10-06T02:11:44.230Z,76.7
2022-10-06T02:14:44.254Z,76.4
2022-10-06T02:17:44.233Z,75.8
2022-10-06T02:20:44.243Z,75.7
2022-10-06T02:23:44.247Z,75.9
2022-10-06T02:26:44.243Z,76.1
2022-10-06T02:29:44.250Z,76.5
2022-10-06T02:32:44.288Z,76.7
2022-10-06T02:35:44.262Z,77
2022-10-06T02:38:44.265Z,77.1
2022-10-06T02:41:44.273Z,77.5
2022-10-06T02:44:44.276Z,77.9
2022-10-06T02:47:44.284Z,78
2022-10-06T02:50:44.310Z,78.6
2022-10-06T02:53:44.292Z,78.8
2022-10-06T02:56:44.307Z,79.3
2022-10-06T02:59:44.311Z,79.3
2022-10-06T03:02:44.529Z,79.8
2022-10-06T03:05:44.322Z,80.1
2022-10-06T03:08:44.349Z,80.5
2022-10-06T03:11:44.340Z,80.6
2022-10-06T03:14:44.330Z,80.8
2022-10-06T03:17:44.336Z,81
2022-10-06T03:20:44.346Z,81.1
2022-10-06T03:23:44.352Z,81.1
2022-10-06T03:26:44.380Z,81.7
2022-10-06T03:29:44.363Z,82
2022-10-06T03:32:44.369Z,82.4
2022-10-06T03:35:44.378Z,82.5
2022-10-06T03:38:44.383Z,82.8
2022-10-06T03:41:44.399Z,83.1
2022-10-06T03:44:44.424Z,83.5
2022-10-06T03:47:44.408Z,83.7
2022-10-06T03:50:44.414Z,83.6
2022-10-06T03:53:44.420Z,83.7
2022-10-06T03:56:44.427Z,83.9
2022-10-06T03:59:44.432Z,84
2022-10-06T04:02:44.465Z,84
2022-10-06T04:05:44.442Z,84
2022-10-06T04:08:44.448Z,84.1
2022-10-06T04:11:44.453Z,84.3
2022-10-06T04:14:44.463Z,84.3
2022-10-06T04:17:44.468Z,84.5
2022-10-06T04:20:44.527Z,84.5
2022-10-06T04:23:44.481Z,84.6
2022-10-06T04:26:44.486Z,84.7
2022-10-06T04:29:44.496Z,85
2022-10-06T04:32:44.574Z,85.3
2022-10-06T04:35:44.511Z,85.7
2022-10-06T04:38:44.540Z,85.8
2022-10-06T04:41:44.521Z,86
2022-10-06T04:44:44.528Z,86.2
2022-10-06T04:47:44.536Z,85.9
2022-10-06T04:50:44.543Z,86.1
2022-10-06T04:53:44.558Z,86.2
2022-10-06T04:56:44.581Z,86.1
2022-10-06T04:59:44.562Z,86.3
2022-10-06T05:02:44.578Z,86.1
2022-10-06T05:05:44.580Z,86
2022-10-06T05:08:44.592Z,86.1
2022-10-06T05:11:44.595Z,86.1
2022-10-06T05:14:44.629Z,85.9
2022-10-06T05:17:44.610Z,85.8
2022-10-06T05:20:44.623Z,86.2
2022-10-06T05:23:44.623Z,86.2
2022-10-06T05:26:44.638Z,86.2
2022-10-06T05:29:44.639Z,86.1
2022-10-06T05:32:44.721Z,85.9
2022-10-06T05:35:44.658Z,85.7
2022-10-06T05:38:44.655Z,85.5
2022-10-06T05:41:44.672Z,85.1
2022-10-06T05:44:44.680Z,84.6
2022-10-06T05:47:44.696Z,84.3
2022-10-06T05:50:44.715Z,84
2022-10-06T05:53:44.705Z,83.6
2022-10-06T05:56:44.715Z,83.1
2022-10-06T05:59:44.729Z,82.7
2022-10-06T06:02:44.762Z,82.4
2022-10-06T06:05:44.736Z,81.8
2022-10-06T06:08:44.846Z,81.4
2022-10-06T06:11:44.754Z,80.4
2022-10-06T06:14:44.766Z,79.3
2022-10-06T06:17:44.775Z,78.5
2022-10-06T06:20:44.784Z,78.2
2022-10-06T06:23:44.791Z,77.3
2022-10-06T06:26:44.825Z,77.4
2022-10-06T06:29:44.815Z,77.2
2022-10-06T06:32:44.829Z,77.8
2022-10-06T06:35:44.831Z,77.7
2022-10-06T06:38:44.834Z,77.7
2022-10-06T06:41:44.851Z,77.4
2022-10-06T06:44:44.913Z,76.4
2022-10-06T06:47:44.871Z,76.1
2022-10-06T06:50:44.883Z,76.2
2022-10-06T06:53:44.894Z,76.4
2022-10-06T06:56:44.900Z,76.6
2022-10-06T06:59:44.911Z,77.2
2022-10-06T07:02:44.949Z,77.6
2022-10-06T07:05:44.929Z,77.1
2022-10-06T07:08:44.947Z,75.8
2022-10-06T07:11:44.960Z,75.1
2022-10-06T07:14:44.961Z,74.8
2022-10-06T07:17:44.972Z,74.5
2022-10-06T07:20:45.013Z,74.3
2022-10-06T07:23:44.996Z,74.3
2022-10-06T07:26:45.007Z,74.3
2022-10-06T07:29:45.019Z,74.5
2022-10-06T07:32:45.029Z,74.1
2022-10-06T07:35:45.039Z,74.3
2022-10-06T07:38:45.165Z,73.6
2022-10-06T07:41:45.057Z,73.8
2022-10-06T07:44:45.067Z,73.6
2022-10-06T07:47:45.076Z,73.3
2022-10-06T07:50:45.092Z,73.4
2022-10-06T07:53:45.098Z,72.5
2022-10-06T07:56:45.136Z,71.2
2022-10-06T07:59:45.113Z,71.4
2022-10-06T08:02:45.188Z,71.1
2022-10-06T08:05:45.144Z,67.7
2022-10-06T08:08:48.035Z,65.6
2022-10-06T08:11:45.156Z,64.3
2022-10-06T08:14:45.201Z,63.3
2022-10-06T08:17:45.181Z,63.3
2022-10-06T08:20:45.265Z,64.2
2022-10-06T08:23:45.208Z,64
2022-10-06T08:26:45.216Z,65.2
2022-10-06T08:29:45.223Z,65.8
2022-10-06T08:32:45.253Z,65.7
2022-10-06T08:35:45.238Z,63.8
2022-10-06T08:38:45.248Z,64.4
2022-10-06T08:41:45.261Z,64.2
2022-10-06T08:44:45.266Z,62.9
2022-10-06T08:47:45.274Z,63.1
2022-10-06T08:50:45.307Z,62.6
2022-10-06T08:53:45.288Z,61.4
2022-10-06T08:56:45.296Z,60.3
2022-10-06T08:59:45.304Z,59.4
2022-10-06T09:02:45.364Z,60
2022-10-06T09:05:45.323Z,59.3
2022-10-06T09:08:45.353Z,59.2
2022-10-06T09:11:45.338Z,58.1
2022-10-06T09:14:45.346Z,57.6
2022-10-06T09:17:45.356Z,55.9
2022-10-06T09:20:45.359Z,55.7
2022-10-06T09:23:45.392Z,54.6
2022-10-06T09:26:45.429Z,53.7
2022-10-06T09:29:45.392Z,54.4
2022-10-06T09:32:45.400Z,54.5
2022-10-06T09:35:45.405Z,53.7
2022-10-06T09:38:45.407Z,53.4
2022-10-06T09:41:45.416Z,53.6
2022-10-06T09:44:45.517Z,53.5
2022-10-06T09:47:45.658Z,51.1
2022-10-06T09:50:45.437Z,50.9
2022-10-06T09:53:45.434Z,51
2022-10-06T09:56:45.453Z,51.5
2022-10-06T09:59:45.453Z,51.4
2022-10-06T10:02:45.506Z,52
2022-10-06T10:05:45.461Z,51
2022-10-06T10:08:45.508Z,51
2022-10-06T10:11:45.473Z,48.6
2022-10-06T10:14:45.469Z,49.1
2022-10-06T10:17:45.480Z,48.5
2022-10-06T10:20:45.507Z,48
2022-10-06T10:23:45.491Z,48.8
2022-10-06T10:26:45.488Z,48.3
2022-10-06T10:29:45.488Z,48.2
2022-10-06T10:32:45.492Z,48.3
2022-10-06T10:35:45.503Z,48.5
2022-10-06T10:38:45.521Z,48.3
2022-10-06T10:41:45.506Z,48.3
2022-10-06T10:44:45.507Z,49
2022-10-06T10:47:45.508Z,48.9
2022-10-06T10:50:45.511Z,48.7
2022-10-06T10:53:45.519Z,48
2022-10-06T10:56:45.543Z,49.4
2022-10-06T10:59:45.514Z,50.3
2022-10-06T11:02:45.521Z,50.6
2022-10-06T11:05:45.523Z,50.6
2022-10-06T11:08:45.529Z,50.5
2022-10-06T11:11:48.655Z,49.8
2022-10-06T11:14:45.558Z,49.8
2022-10-06T11:17:45.528Z,49.4
2022-10-06T11:20:45.532Z,49
2022-10-06T11:23:45.535Z,49.5
2022-10-06T11:26:45.545Z,49.9
2022-10-06T11:29:45.544Z,50.5
2022-10-06T11:32:45.564Z,51
2022-10-06T11:35:45.543Z,52
2022-10-06T11:38:45.551Z,52.3
2022-10-06T11:41:45.562Z,51.6
2022-10-06T11:44:45.581Z,51.3
2022-10-06T11:47:45.593Z,51.5
2022-10-06T11:50:45.635Z,50
2022-10-06T11:53:45.619Z,49.2
2022-10-06T11:56:45.637Z,49.3
2022-10-06T11:59:45.646Z,49.8
2022-10-06T12:02:45.914Z,50.8
2022-10-06T12:06:00.984Z,50.7
2022-10-06T12:08:45.706Z,51.8
2022-10-06T12:11:45.698Z,49.7
2022-10-06T12:17:45.723Z,51.1
2022-10-06T12:20:45.742Z,50.4
2022-10-06T12:23:45.753Z,50.6
2022-10-06T12:26:45.904Z,51.6
2022-10-06T12:29:45.770Z,52.3
2022-10-06T12:32:45.794Z,50.8
2022-10-06T12:35:45.807Z,52
2022-10-06T12:38:45.825Z,52.2
2022-10-06T12:41:45.854Z,52.7
2022-10-06T12:44:45.887Z,52.9
2022-10-06T12:47:45.880Z,52.4
2022-10-06T12:50:45.892Z,51.7
2022-10-06T12:53:45.908Z,51.8
2022-10-06T12:56:45.921Z,51.6
2022-10-06T12:59:45.929Z,51.7
2022-10-06T13:02:45.995Z,52
2022-10-06T13:05:45.963Z,52.1
2022-10-06T13:08:45.972Z,52.3
2022-10-06T13:11:45.993Z,52.4
2022-10-06T13:14:46.007Z,52.9
2022-10-06T13:17:46.013Z,52.2
2022-10-06T13:20:46.062Z,52.3
2022-10-06T13:23:46.051Z,51.7
2022-10-06T13:26:46.065Z,51.5
2022-10-06T13:29:46.085Z,51.4
2022-10-06T13:32:46.094Z,52
2022-10-06T13:35:46.116Z,52.6
2022-10-06T13:38:46.154Z,52.7
2022-10-06T13:41:46.151Z,52.8
2022-10-06T13:44:46.164Z,52.5
2022-10-06T13:47:46.169Z,51.9
2022-10-06T13:50:46.232Z,51.9
2022-10-06T13:53:46.204Z,52.2
2022-10-06T13:56:46.253Z,52.2
2022-10-06T13:59:46.241Z,52
2022-10-06T14:02:46.327Z,52.3
2022-10-06T14:05:46.272Z,51.9
2022-10-06T14:08:46.288Z,51.8
2022-10-06T14:11:46.934Z,51.6
2022-10-06T14:14:46.339Z,52.2
2022-10-06T14:17:46.332Z,51.9
2022-10-06T14:20:46.347Z,52.3
2022-10-06T14:23:46.364Z,51.7
2022-10-06T14:26:46.388Z,52.2
2022-10-06T14:29:46.398Z,52.7
2022-10-06T14:32:46.435Z,52.5
2022-10-06T14:35:46.441Z,52.9
2022-10-06T14:38:46.446Z,53.2
2022-10-06T14:41:46.466Z,53.6
2022-10-06T14:44:46.494Z,54.2
2022-10-06T14:47:46.503Z,53.8
2022-10-06T14:50:46.545Z,53.5
2022-10-06T14:53:46.539Z,53.2
2022-10-06T14:56:46.559Z,53.2
2022-10-06T14:59:46.576Z,53.1
2022-10-06T15:02:46.712Z,53.7
2022-10-06T15:05:46.608Z,53.7
2022-10-06T15:08:46.655Z,53.8
2022-10-06T15:11:46.664Z,54.2
2022-10-06T15:14:46.666Z,54.7
2022-10-06T15:17:46.689Z,54.4
2022-10-06T15:20:46.709Z,54.5
2022-10-06T15:23:46.727Z,54.9
2022-10-06T15:26:46.752Z,54.7
2022-10-06T15:29:46.761Z,54.8
2022-10-06T15:32:46.781Z,55.3
2022-10-06T15:35:46.797Z,55.1
2022-10-06T15:38:46.819Z,55.2
2022-10-06T15:41:46.833Z,55.5
2022-10-06T15:44:46.869Z,55.7
2022-10-06T15:47:46.869Z,56
2022-10-06T15:50:46.893Z,56.2
2022-10-06T15:53:46.914Z,56.4
2022-10-06T15:56:46.925Z,56.6
2022-10-06T15:59:46.944Z,56.8
2022-10-06T16:02:47.086Z,57.2
2022-10-06T16:05:46.989Z,57.5
2022-10-06T16:08:46.998Z,57.7
2022-10-06T16:11:47.031Z,58.2
2022-10-06T16:14:47.032Z,58.4
2022-10-06T16:17:47.049Z,58.5
2022-10-06T16:20:47.094Z,59.1
2022-10-06T16:23:47.091Z,59.5
2022-10-06T16:26:47.115Z,59.7
2022-10-06T16:29:47.132Z,59.9
2022-10-06T16:32:47.152Z,60.5
2022-10-06T16:35:47.168Z,61
2022-10-06T16:38:47.276Z,61.5
2022-10-06T16:41:47.212Z,61.9
2022-10-06T16:44:47.234Z,62.2
2022-10-06T16:47:47.247Z,62.5
2022-10-06T16:50:47.266Z,63
2022-10-06T16:53:47.294Z,63.6
2022-10-06T16:56:47.350Z,64
2022-10-06T16:59:47.333Z,64.3
2022-10-06T17:02:47.361Z,64.4
2022-10-06T17:05:47.372Z,64.8
2022-10-06T17:08:47.386Z,65.4
2022-10-06T17:11:47.415Z,65.9
2022-10-06T17:14:47.484Z,66.5
2022-10-06T17:17:47.461Z,67.1
2022-10-06T17:20:47.480Z,67.6
2022-10-06T17:23:47.495Z,68.3
2022-10-06T17:26:47.510Z,68.8
2022-10-06T17:29:47.531Z,69.1
2022-10-06T17:32:47.564Z,69.5
2022-10-06T17:35:47.556Z,69.8
2022-10-06T17:38:47.571Z,70.2
2022-10-06T17:41:47.575Z,70.7
2022-10-06T17:44:47.592Z,71.7
2022-10-06T17:47:47.601Z,72.2
2022-10-06T17:50:47.638Z,73.2
2022-10-06T17:53:47.628Z,73.6
2022-10-06T17:56:47.636Z,74.2
2022-10-06T17:59:47.661Z,74.7
2022-10-06T18:02:47.752Z,75.5
2022-10-06T18:05:47.699Z,75.9
2022-10-06T18:08:47.742Z,76.3
2022-10-06T18:11:47.733Z,76.7
2022-10-06T18:14:47.749Z,76.9
2022-10-06T18:17:47.770Z,77.6
2022-10-06T18:20:47.795Z,78.1
2022-10-06T18:23:47.807Z,78.7
2022-10-06T18:26:47.838Z,79.4
2022-10-06T18:29:47.834Z,80.1
2022-10-06T18:38:47.889Z,80.7
2022-10-06T18:41:47.889Z,80.1
2022-10-06T18:44:47.940Z,79.9
2022-10-06T18:47:47.925Z,79.9
2022-10-06T18:50:47.946Z,80.6
2022-10-06T18:53:47.970Z,81.4
2022-10-06T18:56:47.975Z,80.8
2022-10-06T18:59:47.998Z,80.9
2022-10-06T19:02:48.664Z,81.1
2022-10-06T19:05:48.048Z,81
2022-10-06T19:08:48.081Z,81.5
2022-10-06T19:11:48.091Z,81.5
2022-10-06T19:14:48.113Z,81.5
2022-10-06T19:17:48.135Z,81.1
2022-10-06T19:20:48.181Z,81
2022-10-06T19:23:48.178Z,81.5
2022-10-06T19:26:48.189Z,82.2
2022-10-06T19:29:48.209Z,83
2022-10-06T19:32:48.233Z,83.8
2022-10-06T19:35:48.249Z,84.1
2022-10-06T19:38:48.295Z,84.4
2022-10-06T19:41:48.281Z,84.8
2022-10-06T19:44:48.302Z,85.1
2022-10-06T19:47:48.317Z,85.5
2022-10-06T19:50:48.370Z,85.7
2022-10-06T19:53:48.387Z,86.1
2022-10-06T19:56:48.424Z,86
2022-10-06T19:59:48.415Z,86
2022-10-06T20:02:48.440Z,85.9
2022-10-06T20:05:48.452Z,85.6
2022-10-06T20:08:48.483Z,85.4
2022-10-06T20:11:48.487Z,85.3
2022-10-06T20:14:48.526Z,85.8
2022-10-06T20:17:48.526Z,86.1
2022-10-06T20:20:48.539Z,86.5
2022-10-06T20:23:48.591Z,86.4
2022-10-06T20:26:48.575Z,86.5
2022-10-06T20:29:48.589Z,86.6
2022-10-06T20:32:48.639Z,86.8
2022-10-06T20:35:48.633Z,86.9
2022-10-06T20:38:48.652Z,86.6
2022-10-06T20:41:48.669Z,86.6
2022-10-06T20:44:48.691Z,86.3
2022-10-06T20:47:48.707Z,86.1
2022-10-06T20:50:48.744Z,85.9
2022-10-06T20:53:48.769Z,85.9
2022-10-06T20:56:48.753Z,86.1
2022-10-06T20:59:48.757Z,86.3
2022-10-06T21:02:48.820Z,86.5
2022-10-06T21:05:48.770Z,86.4
2022-10-06T21:08:48.820Z,86.5
2022-10-06T21:11:48.795Z,86.5
2022-10-06T21:14:48.811Z,86.7
2022-10-06T21:17:48.829Z,86.5
2022-10-06T21:20:48.840Z,86.2
2022-10-06T21:23:48.877Z,85.9
2022-10-06T21:26:48.899Z,85.9
2022-10-06T21:29:48.890Z,85.7
2022-10-06T21:32:48.918Z,85.6
2022-10-06T21:35:48.929Z,85.8
2022-10-06T21:38:48.958Z,86
2022-10-06T21:41:48.961Z,86.4
2022-10-06T21:44:49.005Z,86.7
2022-10-06T21:47:48.989Z,87
2022-10-06T21:50:48.997Z,87.5
2022-10-06T21:53:49.035Z,87.8
2022-10-06T21:56:49.024Z,88
2022-10-06T21:59:49.041Z,88
2022-10-06T22:02:49.119Z,88.3
2022-10-06T22:05:49.067Z,88.7
2022-10-06T22:08:49.110Z,88.7
2022-10-06T22:11:49.103Z,88.7
2022-10-06T22:14:49.126Z,88.8
2022-10-06T22:17:49.148Z,89
2022-10-06T22:20:49.192Z,89.5
2022-10-06T22:23:49.184Z,90
2022-10-06T22:26:49.189Z,90.4
2022-10-06T22:29:49.211Z,90.3
2022-10-06T22:32:49.213Z,90.2
2022-10-06T22:35:49.220Z,90.3
2022-10-06T22:38:49.263Z,90.6
2022-10-06T22:41:49.250Z,90.7
2022-10-06T22:44:49.263Z,91
2022-10-06T22:47:49.275Z,91.2
2022-10-06T22:50:49.294Z,91.3
2022-10-06T22:53:51.124Z,91.3
2022-10-06T22:56:49.384Z,91.3
2022-10-06T22:59:49.338Z,90.9
2022-10-06T23:02:49.351Z,89.9
2022-10-06T23:05:49.369Z,89.7
2022-10-06T23:08:49.410Z,90.4
2022-10-06T23:11:49.414Z,90.4
2022-10-06T23:14:49.446Z,90.3
2022-10-06T23:17:49.444Z,90.6
2022-10-06T23:20:49.456Z,90.8
2022-10-06T23:23:49.492Z,91.4
2022-10-06T23:26:49.470Z,91.5
2022-10-06T23:29:49.490Z,91.4
2022-10-06T23:32:49.532Z,91.3
2022-10-06T23:35:49.519Z,91.2
2022-10-06T23:38:49.547Z,91.5
2022-10-06T23:41:49.551Z,91.8
2022-10-06T23:44:49.596Z,91.9
2022-10-06T23:47:49.586Z,91.7
2022-10-06T23:50:49.624Z,91.4
2022-10-06T23:53:49.634Z,91.2
2022-10-06T23:56:49.631Z,91
2022-10-06T23:59:49.651Z,90.7
